sensor_id;sensor_type;location;lat;lon;timestamp;pressure;altitude;pressure_sealevel;temperature;humidity
72210;BME280;60113;48.762;12.302;2024-02-28T00:00:51;96991.59;;;1.19;99.37
72210;BME280;60113;48.762;12.302;2024-02-28T00:03:19;96993.66;;;1.11;98.49
72210;BME280;60113;48.762;12.302;2024-02-28T00:05:46;96994.88;;;1.02;98.02
72210;BME280;60113;48.762;12.302;2024-02-28T00:08:12;96991.03;;;0.90;97.59
72210;BME280;60113;48.762;12.302;2024-02-28T00:10:37;96998.41;;;0.79;96.95
72210;BME280;60113;48.762;12.302;2024-02-28T00:13:03;97004.94;;;0.67;96.29
72210;BME280;60113;48.762;12.302;2024-02-28T00:15:31;96990.59;;;0.58;99.35
72210;BME280;60113;48.762;12.302;2024-02-28T00:17:57;97012.50;;;0.49;99.40
72210;BME280;60113;48.762;12.302;2024-02-28T00:20:23;97001.59;;;0.41;100.00
72210;BME280;60113;48.762;12.302;2024-02-28T00:22:55;97000.97;;;0.35;97.63
72210;BME280;60113;48.762;12.302;2024-02-28T00:25:20;97007.06;;;0.33;97.81
72210;BME280;60113;48.762;12.302;2024-02-28T00:27:46;97015.91;;;0.27;97.95
72210;BME280;60113;48.762;12.302;2024-02-28T00:30:12;97017.00;;;0.21;98.61
72210;BME280;60113;48.762;12.302;2024-02-28T00:32:37;97018.09;;;0.14;99.51
72210;BME280;60113;48.762;12.302;2024-02-28T00:35:03;97018.34;;;0.08;98.56
72210;BME280;60113;48.762;12.302;2024-02-28T00:37:30;97016.06;;;0.00;98.12
72210;BME280;60113;48.762;12.302;2024-02-28T00:39:55;97013.78;;;-0.08;100.00
72210;BME280;60113;48.762;12.302;2024-02-28T00:42:21;97024.31;;;-0.14;99.27
72210;BME280;60113;48.762;12.302;2024-02-28T00:44:47;97021.09;;;-0.21;97.63
72210;BME280;60113;48.762;12.302;2024-02-28T00:47:13;97004.16;;;-0.28;97.52
72210;BME280;60113;48.762;12.302;2024-02-28T00:49:39;97016.44;;;-0.35;97.05
72210;BME280;60113;48.762;12.302;2024-02-28T00:52:05;97014.81;;;-0.38;97.37
72210;BME280;60113;48.762;12.302;2024-02-28T00:54:31;97019.13;;;-0.38;99.42
72210;BME280;60113;48.762;12.302;2024-02-28T00:56:56;97015.03;;;-0.44;100.00
72210;BME280;60113;48.762;12.302;2024-02-28T00:59:22;97016.75;;;-0.44;100.00
72210;BME280;60113;48.762;12.302;2024-02-28T01:01:48;97019.47;;;-0.47;99.02
72210;BME280;60113;48.762;12.302;2024-02-28T01:04:14;97025.47;;;-0.47;98.76
72210;BME280;60113;48.762;12.302;2024-02-28T01:06:39;97033.28;;;-0.48;99.15
72210;BME280;60113;48.762;12.302;2024-02-28T01:09:04;97031.63;;;-0.51;98.98
72210;BME280;60113;48.762;12.302;2024-02-28T01:11:30;97037.78;;;-0.55;98.38
72210;BME280;60113;48.762;12.302;2024-02-28T01:13:55;97035.38;;;-0.60;97.32
72210;BME280;60113;48.762;12.302;2024-02-28T01:16:21;97044.91;;;-0.62;98.07
72210;BME280;60113;48.762;12.302;2024-02-28T01:18:46;97045.00;;;-0.65;98.85
72210;BME280;60113;48.762;12.302;2024-02-28T01:21:12;97045.19;;;-0.70;97.84
72210;BME280;60113;48.762;12.302;2024-02-28T01:23:37;97053.91;;;-0.74;98.26
72210;BME280;60113;48.762;12.302;2024-02-28T01:26:06;97059.25;;;-0.80;98.35
72210;BME280;60113;48.762;12.302;2024-02-28T01:28:31;97072.28;;;-0.83;100.00
72210;BME280;60113;48.762;12.302;2024-02-28T01:30:57;97070.59;;;-0.84;100.00
72210;BME280;60113;48.762;12.302;2024-02-28T01:33:23;97069.63;;;-0.82;100.00
72210;BME280;60113;48.762;12.302;2024-02-28T01:35:49;97072.03;;;-0.76;100.00
72210;BME280;60113;48.762;12.302;2024-02-28T01:38:15;97076.09;;;-0.68;100.00
72210;BME280;60113;48.762;12.302;2024-02-28T01:40:46;97076.09;;;-0.68;100.00
72210;BME280;60113;48.762;12.302;2024-02-28T01:43:12;97082.25;;;-0.72;99.57
72210;BME280;60113;48.762;12.302;2024-02-28T01:45:38;97085.72;;;-0.73;100.00
72210;BME280;60113;48.762;12.302;2024-02-28T01:48:06;97081.56;;;-0.78;100.00
72210;BME280;60113;48.762;12.302;2024-02-28T01:50:32;97085.13;;;-0.82;100.00
72210;BME280;60113;48.762;12.302;2024-02-28T01:52:58;97087.81;;;-0.85;100.00
72210;BME280;60113;48.762;12.302;2024-02-28T01:55:25;97082.84;;;-0.91;99.70
72210;BME280;60113;48.762;12.302;2024-02-28T01:57:52;97095.94;;;-0.97;98.10
72210;BME280;60113;48.762;12.302;2024-02-28T02:00:18;97100.47;;;-1.04;98.46
72210;BME280;60113;48.762;12.302;2024-02-28T02:02:46;97099.81;;;-1.11;98.94
72210;BME280;60113;48.762;12.302;2024-02-28T02:05:14;97105.09;;;-1.16;99.01
72210;BME280;60113;48.762;12.302;2024-02-28T02:07:42;97112.09;;;-1.19;99.60
72210;BME280;60113;48.762;12.302;2024-02-28T02:10:08;97115.69;;;-1.25;99.17
72210;BME280;60113;48.762;12.302;2024-02-28T02:12:37;97116.75;;;-1.31;99.26
72210;BME280;60113;48.762;12.302;2024-02-28T02:15:03;97117.72;;;-1.35;100.00
72210;BME280;60113;48.762;12.302;2024-02-28T02:17:29;97121.22;;;-1.38;98.75
72210;BME280;60113;48.762;12.302;2024-02-28T02:19:54;97132.53;;;-1.42;98.66
72210;BME280;60113;48.762;12.302;2024-02-28T02:22:20;97137.81;;;-1.46;97.82
72210;BME280;60113;48.762;12.302;2024-02-28T02:24:46;97146.50;;;-1.49;98.94
72210;BME280;60113;48.762;12.302;2024-02-28T02:27:12;97146.53;;;-1.51;99.88
72210;BME280;60113;48.762;12.302;2024-02-28T02:29:38;97139.53;;;-1.47;100.00
72210;BME280;60113;48.762;12.302;2024-02-28T02:32:03;97143.59;;;-1.38;100.00
72210;BME280;60113;48.762;12.302;2024-02-28T02:34:29;97143.16;;;-1.24;100.00
72210;BME280;60113;48.762;12.302;2024-02-28T02:36:55;97147.28;;;-1.17;100.00
72210;BME280;60113;48.762;12.302;2024-02-28T02:39:20;97153.16;;;-1.13;100.00
72210;BME280;60113;48.762;12.302;2024-02-28T02:41:46;97151.47;;;-1.14;100.00
72210;BME280;60113;48.762;12.302;2024-02-28T02:44:12;97161.75;;;-1.13;100.00
72210;BME280;60113;48.762;12.302;2024-02-28T02:46:38;97161.78;;;-1.14;100.00
72210;BME280;60113;48.762;12.302;2024-02-28T02:49:04;97158.31;;;-1.13;100.00
72210;BME280;60113;48.762;12.302;2024-02-28T02:51:30;97156.63;;;-1.14;100.00
72210;BME280;60113;48.762;12.302;2024-02-28T02:53:55;97156.72;;;-1.17;100.00
72210;BME280;60113;48.762;12.302;2024-02-28T02:56:20;97152.59;;;-1.23;100.00
72210;BME280;60113;48.762;12.302;2024-02-28T02:58:46;97146.72;;;-1.28;100.00
72210;BME280;60113;48.762;12.302;2024-02-28T03:01:12;97159.81;;;-1.34;100.00
72210;BME280;60113;48.762;12.302;2024-02-28T03:03:37;97159.84;;;-1.36;100.00
72210;BME280;60113;48.762;12.302;2024-02-28T03:06:04;97164.91;;;-1.33;100.00
72210;BME280;60113;48.762;12.302;2024-02-28T03:08:30;97158.41;;;-1.16;100.00
72210;BME280;60113;48.762;12.302;2024-02-28T03:10:56;97167.25;;;-0.95;100.00
72210;BME280;60113;48.762;12.302;2024-02-28T03:13:21;97165.91;;;-0.80;100.00
72210;BME280;60113;48.762;12.302;2024-02-28T03:15:48;97168.19;;;-0.70;100.00
72210;BME280;60113;48.762;12.302;2024-02-28T03:18:13;97174.03;;;-0.65;100.00
72210;BME280;60113;48.762;12.302;2024-02-28T03:20:39;97173.13;;;-0.63;100.00
72210;BME280;60113;48.762;12.302;2024-02-28T03:23:05;97175.59;;;-0.59;100.00
72210;BME280;60113;48.762;12.302;2024-02-28T03:25:31;97178.03;;;-0.55;100.00
72210;BME280;60113;48.762;12.302;2024-02-28T03:27:58;97177.78;;;-0.47;100.00
72210;BME280;60113;48.762;12.302;2024-02-28T03:30:23;97177.44;;;-0.36;100.00
72210;BME280;60113;48.762;12.302;2024-02-28T03:32:49;97188.28;;;-0.26;100.00
72210;BME280;60113;48.762;12.302;2024-02-28T03:35:14;97181.19;;;-0.19;100.00
72210;BME280;60113;48.762;12.302;2024-02-28T03:37:40;97174.97;;;-0.14;100.00
72210;BME280;60113;48.762;12.302;2024-02-28T03:40:06;97181.53;;;-0.03;100.00
72210;BME280;60113;48.762;12.302;2024-02-28T03:42:32;97178.69;;;0.03;100.00
72210;BME280;60113;48.762;12.302;2024-02-28T03:44:58;97170.75;;;0.09;100.00
72210;BME280;60113;48.762;12.302;2024-02-28T03:47:23;97174.88;;;0.15;100.00
72210;BME280;60113;48.762;12.302;2024-02-28T03:49:50;97166.78;;;0.24;100.00
72210;BME280;60113;48.762;12.302;2024-02-28T03:52:16;97165.66;;;0.32;100.00
72210;BME280;60113;48.762;12.302;2024-02-28T03:54:44;97158.47;;;0.40;100.00
72210;BME280;60113;48.762;12.302;2024-02-28T03:57:10;97167.00;;;0.42;100.00
72210;BME280;60113;48.762;12.302;2024-02-28T03:59:35;97166.84;;;0.47;100.00
72210;BME280;60113;48.762;12.302;2024-02-28T04:02:00;97170.22;;;0.49;100.00
72210;BME280;60113;48.762;12.302;2024-02-28T04:04:26;97170.13;;;0.52;100.00
72210;BME280;60113;48.762;12.302;2024-02-28T04:06:51;97173.50;;;0.54;100.00
72210;BME280;60113;48.762;12.302;2024-02-28T04:09:17;97172.53;;;0.57;100.00
72210;BME280;60113;48.762;12.302;2024-02-28T04:11:42;97168.38;;;0.53;100.00
72210;BME280;60113;48.762;12.302;2024-02-28T04:14:09;97171.19;;;0.46;100.00
72210;BME280;60113;48.762;12.302;2024-02-28T04:16:34;97170.50;;;0.41;100.00
72210;BME280;60113;48.762;12.302;2024-02-28T04:18:59;97179.16;;;0.40;100.00
72210;BME280;60113;48.762;12.302;2024-02-28T04:21:25;97183.47;;;0.40;100.00
72210;BME280;60113;48.762;12.302;2024-02-28T04:23:51;97194.56;;;0.43;100.00
72210;BME280;60113;48.762;12.302;2024-02-28T04:26:16;97198.78;;;0.46;100.00
72210;BME280;60113;48.762;12.302;2024-02-28T04:28:42;97205.50;;;0.50;100.00
72210;BME280;60113;48.762;12.302;2024-02-28T04:31:07;97209.59;;;0.57;100.00
72210;BME280;60113;48.762;12.302;2024-02-28T04:33:35;97215.34;;;0.64;100.00
72210;BME280;60113;48.762;12.302;2024-02-28T04:36:01;97206.53;;;0.70;100.00
72210;BME280;60113;48.762;12.302;2024-02-28T04:38:26;97208.88;;;0.76;100.00
72210;BME280;60113;48.762;12.302;2024-02-28T04:40:52;97219.91;;;0.81;100.00
72210;BME280;60113;48.762;12.302;2024-02-28T04:43:17;97225.88;;;0.83;100.00
72210;BME280;60113;48.762;12.302;2024-02-28T04:45:43;97225.94;;;0.82;100.00
72210;BME280;60113;48.762;12.302;2024-02-28T04:48:08;97234.47;;;0.84;100.00
72210;BME280;60113;48.762;12.302;2024-02-28T04:50:34;97230.09;;;0.86;100.00
72210;BME280;60113;48.762;12.302;2024-02-28T04:52:59;97239.53;;;0.87;100.00
72210;BME280;60113;48.762;12.302;2024-02-28T04:55:24;97241.13;;;0.91;100.00
72210;BME280;60113;48.762;12.302;2024-02-28T04:57:50;97234.19;;;0.92;100.00
72210;BME280;60113;48.762;12.302;2024-02-28T05:00:16;97239.31;;;0.93;100.00
72210;BME280;60113;48.762;12.302;2024-02-28T05:02:41;97239.38;;;0.92;100.00
72210;BME280;60113;48.762;12.302;2024-02-28T05:05:06;97248.94;;;0.90;100.00
72210;BME280;60113;48.762;12.302;2024-02-28T05:07:34;97252.41;;;0.89;100.00
72210;BME280;60113;48.762;12.302;2024-02-28T05:10:00;97252.41;;;0.89;100.00
72210;BME280;60113;48.762;12.302;2024-02-28T05:12:25;97250.63;;;0.91;100.00
72210;BME280;60113;48.762;12.302;2024-02-28T05:14:51;97250.50;;;0.94;100.00
72210;BME280;60113;48.762;12.302;2024-02-28T05:17:16;97254.66;;;0.98;100.00
72210;BME280;60113;48.762;12.302;2024-02-28T05:19:42;97254.44;;;1.04;100.00
72210;BME280;60113;48.762;12.302;2024-02-28T05:22:08;97260.28;;;1.09;100.00
72210;BME280;60113;48.762;12.302;2024-02-28T05:24:38;97267.78;;;1.17;100.00
72210;BME280;60113;48.762;12.302;2024-02-28T05:27:04;97276.97;;;1.24;100.00
72210;BME280;60113;48.762;12.302;2024-02-28T05:29:29;97272.47;;;1.30;100.00
72210;BME280;60113;48.762;12.302;2024-02-28T05:31:55;97274.84;;;1.36;100.00
72210;BME280;60113;48.762;12.302;2024-02-28T05:34:20;97278.00;;;1.43;100.00
72210;BME280;60113;48.762;12.302;2024-02-28T05:36:46;97289.06;;;1.48;100.00
72210;BME280;60113;48.762;12.302;2024-02-28T05:39:12;97289.84;;;1.50;100.00
72210;BME280;60113;48.762;12.302;2024-02-28T05:41:37;97301.75;;;1.54;100.00
72210;BME280;60113;48.762;12.302;2024-02-28T05:44:02;97295.56;;;1.58;100.00
72210;BME280;60113;48.762;12.302;2024-02-28T05:46:28;97306.66;;;1.62;100.00
72210;BME280;60113;48.762;12.302;2024-02-28T05:48:53;97311.72;;;1.65;100.00
72210;BME280;60113;48.762;12.302;2024-02-28T05:51:19;97310.75;;;1.68;100.00
72210;BME280;60113;48.762;12.302;2024-02-28T05:53:44;97312.31;;;1.72;100.00
72210;BME280;60113;48.762;12.302;2024-02-28T05:56:10;97313.09;;;1.74;100.00
72210;BME280;60113;48.762;12.302;2024-02-28T05:58:43;97319.06;;;1.76;100.00
72210;BME280;60113;48.762;12.302;2024-02-28T06:01:09;97325.94;;;1.77;100.00
72210;BME280;60113;48.762;12.302;2024-02-28T06:03:36;97326.78;;;1.78;100.00
72210;BME280;60113;48.762;12.302;2024-02-28T06:06:01;97338.81;;;1.79;100.00
72210;BME280;60113;48.762;12.302;2024-02-28T06:08:35;97340.53;;;1.80;100.00
72210;BME280;60113;48.762;12.302;2024-02-28T06:11:02;97345.66;;;1.81;100.00
72210;BME280;60113;48.762;12.302;2024-02-28T06:13:28;97349.00;;;1.83;100.00
72210;BME280;60113;48.762;12.302;2024-02-28T06:15:55;97349.81;;;1.85;100.00
72210;BME280;60113;48.762;12.302;2024-02-28T06:18:21;97350.59;;;1.87;100.00
72210;BME280;60113;48.762;12.302;2024-02-28T06:20:48;97361.66;;;1.91;100.00
72210;BME280;60113;48.762;12.302;2024-02-28T06:23:14;97359.88;;;1.93;100.00
72210;BME280;60113;48.762;12.302;2024-02-28T06:25:40;97363.31;;;1.94;100.00
72210;BME280;60113;48.762;12.302;2024-02-28T06:28:08;97364.94;;;1.96;100.00
72210;BME280;60113;48.762;12.302;2024-02-28T06:30:37;97368.25;;;2.00;100.00
72210;BME280;60113;48.762;12.302;2024-02-28T06:33:03;97378.47;;;2.03;100.00
72210;BME280;60113;48.762;12.302;2024-02-28T06:35:30;97368.91;;;2.05;100.00
72210;BME280;60113;48.762;12.302;2024-02-28T06:37:56;97380.13;;;2.06;100.00
72210;BME280;60113;48.762;12.302;2024-02-28T06:40:21;97366.31;;;2.05;100.00
72210;BME280;60113;48.762;12.302;2024-02-28T06:42:47;97373.16;;;2.06;100.00
72210;BME280;60113;48.762;12.302;2024-02-28T06:45:12;97378.34;;;2.06;100.00
72210;BME280;60113;48.762;12.302;2024-02-28T06:47:38;97380.88;;;2.08;100.00
72210;BME280;60113;48.762;12.302;2024-02-28T06:50:04;97385.94;;;2.11;100.00
72210;BME280;60113;48.762;12.302;2024-02-28T06:52:30;97389.34;;;2.13;100.00
72210;BME280;60113;48.762;12.302;2024-02-28T06:54:56;97387.47;;;2.17;100.00
72210;BME280;60113;48.762;12.302;2024-02-28T06:57:21;97396.94;;;2.18;100.00
72210;BME280;60113;48.762;12.302;2024-02-28T06:59:47;97408.09;;;2.20;100.00
72210;BME280;60113;48.762;12.302;2024-02-28T07:02:14;97413.97;;;2.23;100.00
72210;BME280;60113;48.762;12.302;2024-02-28T07:04:41;97397.47;;;2.26;100.00
72210;BME280;60113;48.762;12.302;2024-02-28T07:07:07;97404.34;;;2.27;100.00
72210;BME280;60113;48.762;12.302;2024-02-28T07:09:32;97417.25;;;2.29;100.00
72210;BME280;60113;48.762;12.302;2024-02-28T07:11:59;97420.56;;;2.32;100.00
72210;BME280;60113;48.762;12.302;2024-02-28T07:14:24;97419.59;;;2.35;100.00
72210;BME280;60113;48.762;12.302;2024-02-28T07:16:50;97419.47;;;2.38;100.00
72210;BME280;60113;48.762;12.302;2024-02-28T07:19:19;97416.75;;;2.41;100.00
72210;BME280;60113;48.762;12.302;2024-02-28T07:21:44;97421.81;;;2.44;100.00
72210;BME280;60113;48.762;12.302;2024-02-28T07:24:10;97417.44;;;2.46;100.00
72210;BME280;60113;48.762;12.302;2024-02-28T07:26:36;97426.84;;;2.49;100.00
72210;BME280;60113;48.762;12.302;2024-02-28T07:29:02;97422.38;;;2.53;100.00
72210;BME280;60113;48.762;12.302;2024-02-28T07:31:27;97422.31;;;2.54;100.00
72210;BME280;60113;48.762;12.302;2024-02-28T07:33:53;97426.47;;;2.58;100.00
72210;BME280;60113;48.762;12.302;2024-02-28T07:36:19;97423.78;;;2.60;100.00
72210;BME280;60113;48.762;12.302;2024-02-28T07:38:45;97433.13;;;2.64;100.00
72210;BME280;60113;48.762;12.302;2024-02-28T07:41:10;97431.28;;;2.68;100.00
72210;BME280;60113;48.762;12.302;2024-02-28T07:43:36;97433.81;;;2.69;100.00
72210;BME280;60113;48.762;12.302;2024-02-28T07:46:07;97438.81;;;2.74;100.00
72210;BME280;60113;48.762;12.302;2024-02-28T07:48:33;97431.78;;;2.76;100.00
72210;BME280;60113;48.762;12.302;2024-02-28T07:50:59;97436.84;;;2.79;100.00
72210;BME280;60113;48.762;12.302;2024-02-28T07:53:24;97432.44;;;2.81;100.00
72210;BME280;60113;48.762;12.302;2024-02-28T07:55:50;97434.00;;;2.85;100.00
72210;BME280;60113;48.762;12.302;2024-02-28T07:58:15;97431.19;;;2.90;100.00
72210;BME280;60113;48.762;12.302;2024-02-28T08:00:42;97429.34;;;2.94;100.00
72210;BME280;60113;48.762;12.302;2024-02-28T08:03:08;97422.34;;;2.96;100.00
72210;BME280;60113;48.762;12.302;2024-02-28T08:05:34;97419.59;;;2.99;100.00
72210;BME280;60113;48.762;12.302;2024-02-28T08:08:05;97424.59;;;3.04;100.00
72210;BME280;60113;48.762;12.302;2024-02-28T08:10:32;97428.81;;;3.06;100.00
72210;BME280;60113;48.762;12.302;2024-02-28T08:12:57;97434.78;;;3.08;100.00
72210;BME280;60113;48.762;12.302;2024-02-28T08:15:23;97435.41;;;3.13;100.00
72210;BME280;60113;48.762;12.302;2024-02-28T08:17:49;97435.28;;;3.17;100.00
72210;BME280;60113;48.762;12.302;2024-02-28T08:20:15;97442.13;;;3.19;100.00
72210;BME280;60113;48.762;12.302;2024-02-28T08:22:40;97450.59;;;3.23;100.00
72210;BME280;60113;48.762;12.302;2024-02-28T08:25:06;97447.13;;;3.24;100.00
72210;BME280;60113;48.762;12.302;2024-02-28T08:27:32;97447.00;;;3.27;100.00
72210;BME280;60113;48.762;12.302;2024-02-28T08:30:01;97446.06;;;3.28;100.00
72210;BME280;60113;48.762;12.302;2024-02-28T08:32:26;97450.28;;;3.31;100.00
72210;BME280;60113;48.762;12.302;2024-02-28T08:34:52;97457.94;;;3.34;100.00
72210;BME280;60113;48.762;12.302;2024-02-28T08:37:19;97454.28;;;3.38;100.00
72210;BME280;60113;48.762;12.302;2024-02-28T08:39:46;97455.78;;;3.44;100.00
72210;BME280;60113;48.762;12.302;2024-02-28T08:42:13;97454.69;;;3.49;100.00
72210;BME280;60113;48.762;12.302;2024-02-28T08:44:39;97451.03;;;3.54;100.00
72210;BME280;60113;48.762;12.302;2024-02-28T08:47:05;97456.09;;;3.57;100.00
72210;BME280;60113;48.762;12.302;2024-02-28T08:49:33;97460.25;;;3.61;100.00
72210;BME280;60113;48.762;12.302;2024-02-28T08:51:58;97457.53;;;3.64;100.00
72210;BME280;60113;48.762;12.302;2024-02-28T08:54:23;97459.13;;;3.67;100.00
72210;BME280;60113;48.762;12.302;2024-02-28T08:56:49;97466.66;;;3.73;100.00
72210;BME280;60113;48.762;12.302;2024-02-28T08:59:14;97465.59;;;3.77;100.00
72210;BME280;60113;48.762;12.302;2024-02-28T09:01:40;97470.59;;;3.82;100.00
72210;BME280;60113;48.762;12.302;2024-02-28T09:04:07;97469.63;;;3.84;100.00
72210;BME280;60113;48.762;12.302;2024-02-28T09:06:32;97478.09;;;3.88;100.00
72210;BME280;60113;48.762;12.302;2024-02-28T09:08:58;97472.91;;;3.88;100.00
72210;BME280;60113;48.762;12.302;2024-02-28T09:11:23;97478.97;;;3.88;100.00
72210;BME280;60113;48.762;12.302;2024-02-28T09:13:50;97478.88;;;3.90;100.00
72210;BME280;60113;48.762;12.302;2024-02-28T09:16:16;97486.69;;;3.90;100.00
72210;BME280;60113;48.762;12.302;2024-02-28T09:18:42;97483.16;;;3.91;100.00
72210;BME280;60113;48.762;12.302;2024-02-28T09:21:08;97483.03;;;3.94;100.00
72210;BME280;60113;48.762;12.302;2024-02-28T09:23:33;97487.94;;;4.00;100.00
72210;BME280;60113;48.762;12.302;2024-02-28T09:26:03;97489.41;;;4.06;100.00
72210;BME280;60113;48.762;12.302;2024-02-28T09:28:28;97489.22;;;4.11;100.00
72210;BME280;60113;48.762;12.302;2024-02-28T09:30:54;97497.88;;;4.11;100.00
72210;BME280;60113;48.762;12.302;2024-02-28T09:33:19;97492.59;;;4.13;100.00
72210;BME280;60113;48.762;12.302;2024-02-28T09:35:45;97497.72;;;4.15;100.00
72210;BME280;60113;48.762;12.302;2024-02-28T09:38:10;97498.78;;;4.10;100.00
72210;BME280;60113;48.762;12.302;2024-02-28T09:40:36;97501.59;;;4.06;100.00
72210;BME280;60113;48.762;12.302;2024-02-28T09:43:03;97505.22;;;4.02;100.00
72210;BME280;60113;48.762;12.302;2024-02-28T09:45:29;97503.69;;;3.97;100.00
72210;BME280;60113;48.762;12.302;2024-02-28T09:48:02;97519.28;;;3.97;100.00
72210;BME280;60113;48.762;12.302;2024-02-28T09:50:29;97527.03;;;3.99;100.00
72210;BME280;60113;48.762;12.302;2024-02-28T09:52:56;97529.41;;;4.04;100.00
72210;BME280;60113;48.762;12.302;2024-02-28T09:55:21;97521.41;;;4.08;100.00
72210;BME280;60113;48.762;12.302;2024-02-28T09:57:50;97529.16;;;4.10;100.00
72210;BME280;60113;48.762;12.302;2024-02-28T10:00:20;97521.34;;;4.10;100.00
72210;BME280;60113;48.762;12.302;2024-02-28T10:02:47;97526.63;;;4.08;100.00
72210;BME280;60113;48.762;12.302;2024-02-28T10:05:17;97524.94;;;4.07;100.00
72210;BME280;60113;48.762;12.302;2024-02-28T10:07:46;97529.22;;;4.08;100.00
72210;BME280;60113;48.762;12.302;2024-02-28T10:10:13;97532.59;;;4.10;100.00
72210;BME280;60113;48.762;12.302;2024-02-28T10:12:42;97539.41;;;4.13;100.00
72210;BME280;60113;48.762;12.302;2024-02-28T10:15:09;97541.94;;;4.15;100.00
72210;BME280;60113;48.762;12.302;2024-02-28T10:17:35;97550.53;;;4.17;100.00
72210;BME280;60113;48.762;12.302;2024-02-28T10:20:01;97540.13;;;4.17;100.00
72210;BME280;60113;48.762;12.302;2024-02-28T10:22:26;97545.47;;;4.13;100.00
72210;BME280;60113;48.762;12.302;2024-02-28T10:24:58;97548.00;;;4.15;100.00
72210;BME280;60113;48.762;12.302;2024-02-28T10:27:24;97546.28;;;4.14;100.00
72210;BME280;60113;48.762;12.302;2024-02-28T10:29:49;97549.69;;;4.16;100.00
72210;BME280;60113;48.762;12.302;2024-02-28T10:32:15;97551.22;;;4.20;100.00
72210;BME280;60113;48.762;12.302;2024-02-28T10:34:40;97551.16;;;4.22;100.00
72210;BME280;60113;48.762;12.302;2024-02-28T10:37:07;97551.94;;;4.24;100.00
72210;BME280;60113;48.762;12.302;2024-02-28T10:39:34;97556.22;;;4.25;100.00
72210;BME280;60113;48.762;12.302;2024-02-28T10:42:02;97557.06;;;4.25;100.00
72210;BME280;60113;48.762;12.302;2024-02-28T10:44:29;97553.47;;;4.28;100.00
72210;BME280;60113;48.762;12.302;2024-02-28T10:46:56;97555.84;;;4.33;100.00
72210;BME280;60113;48.762;12.302;2024-02-28T10:49:22;97549.69;;;4.35;100.00
72210;BME280;60113;48.762;12.302;2024-02-28T10:51:49;97552.16;;;4.38;100.00
72210;BME280;60113;48.762;12.302;2024-02-28T10:54:16;97557.34;;;4.38;100.00
72210;BME280;60113;48.762;12.302;2024-02-28T10:56:44;97557.34;;;4.38;100.00
72210;BME280;60113;48.762;12.302;2024-02-28T10:59:10;97565.09;;;4.40;100.00
72210;BME280;60113;48.762;12.302;2024-02-28T11:01:43;97568.53;;;4.41;100.00
72210;BME280;60113;48.762;12.302;2024-02-28T11:04:13;97560.56;;;4.44;100.00
72210;BME280;60113;48.762;12.302;2024-02-28T11:06:51;97561.16;;;4.50;100.00
72210;BME280;60113;48.762;12.302;2024-02-28T11:09:24;97572.66;;;4.64;100.00
72210;BME280;60113;48.762;12.302;2024-02-28T11:11:53;97559.34;;;4.70;100.00
72210;BME280;60113;48.762;12.302;2024-02-28T11:14:19;97565.19;;;4.75;100.00
72210;BME280;60113;48.762;12.302;2024-02-28T11:16:48;97568.41;;;4.81;100.00
72210;BME280;60113;48.762;12.302;2024-02-28T11:19:22;97576.72;;;4.89;100.00
72210;BME280;60113;48.762;12.302;2024-02-28T11:21:54;97568.47;;;4.98;100.00
72210;BME280;60113;48.762;12.302;2024-02-28T11:24:28;97569.84;;;5.06;100.00
72210;BME280;60113;48.762;12.302;2024-02-28T11:26:54;97568.16;;;5.05;100.00
72210;BME280;60113;48.762;12.302;2024-02-28T11:29:27;97568.31;;;5.02;100.00
72210;BME280;60113;48.762;12.302;2024-02-28T11:31:54;97566.63;;;5.00;100.00
72210;BME280;60113;48.762;12.302;2024-02-28T11:34:20;97574.53;;;4.99;100.00
72210;BME280;60113;48.762;12.302;2024-02-28T11:36:49;97574.53;;;4.99;100.00
72210;BME280;60113;48.762;12.302;2024-02-28T11:39:15;97576.28;;;4.98;100.00
72210;BME280;60113;48.762;12.302;2024-02-28T11:41:41;97575.63;;;4.93;100.00
72210;BME280;60113;48.762;12.302;2024-02-28T11:44:07;97583.47;;;4.93;100.00
72210;BME280;60113;48.762;12.302;2024-02-28T11:46:33;97582.78;;;4.90;100.00
72210;BME280;60113;48.762;12.302;2024-02-28T11:49:00;97583.59;;;4.90;100.00
72210;BME280;60113;48.762;12.302;2024-02-28T11:51:26;97576.50;;;4.94;100.00
72210;BME280;60113;48.762;12.302;2024-02-28T11:53:51;97581.56;;;4.97;100.00
72210;BME280;60113;48.762;12.302;2024-02-28T11:56:16;97580.56;;;4.99;100.00
72210;BME280;60113;48.762;12.302;2024-02-28T11:58:58;97579.50;;;5.04;100.00
72210;BME280;60113;48.762;12.302;2024-02-28T12:01:34;97581.13;;;5.06;100.00
72210;BME280;60113;48.762;12.302;2024-02-28T12:04:02;97576.69;;;5.08;100.00
72210;BME280;60113;48.762;12.302;2024-02-28T12:06:28;97577.34;;;5.12;100.00
72210;BME280;60113;48.762;12.302;2024-02-28T12:08:54;97579.81;;;5.15;100.00
72210;BME280;60113;48.762;12.302;2024-02-28T12:11:19;97582.41;;;5.15;100.00
72210;BME280;60113;48.762;12.302;2024-02-28T12:13:45;97584.22;;;5.15;100.00
72210;BME280;60113;48.762;12.302;2024-02-28T12:16:11;97582.50;;;5.13;100.00
72210;BME280;60113;48.762;12.302;2024-02-28T12:18:36;97578.38;;;5.09;100.00
72210;BME280;60113;48.762;12.302;2024-02-28T12:21:02;97578.59;;;5.05;99.75
72210;BME280;60113;48.762;12.302;2024-02-28T12:23:29;97581.34;;;5.02;100.00
72210;BME280;60113;48.762;12.302;2024-02-28T12:25:54;97573.59;;;5.00;99.36
72210;BME280;60113;48.762;12.302;2024-02-28T12:28:19;97571.91;;;4.99;99.86
72210;BME280;60113;48.762;12.302;2024-02-28T12:30:45;97573.75;;;4.97;99.63
72210;BME280;60113;48.762;12.302;2024-02-28T12:33:10;97574.66;;;4.96;100.00
72210;BME280;60113;48.762;12.302;2024-02-28T12:35:39;97569.47;;;4.96;99.75
72210;BME280;60113;48.762;12.302;2024-02-28T12:38:04;97576.63;;;4.91;99.43
72210;BME280;60113;48.762;12.302;2024-02-28T12:40:30;97576.78;;;4.87;99.40
72210;BME280;60113;48.762;12.302;2024-02-28T12:42:56;97580.25;;;4.88;99.64
72210;BME280;60113;48.762;12.302;2024-02-28T12:45:21;97581.06;;;4.88;99.54